1930 NOT_NAMED (1930046N21120)


IBTrACS version v04r00. Visit IBTrACS website for data access.
Please direct all questions to the IBTrACS Q and A forum

Storm track - Intensity - Wind Radii - Intensity Data - Source Data - All data

Summary Information

Storm ID 1930046N21120
Start Feb 14 22Z
End Feb 16 22Z
ATCF IDs
Track status Best track data.

Storm track plot

Map of storm track

Intensity plots

No Intensity information for this storm


Radial wind information

No radial wind information for this storm


Position and Intensity Table

BASIN ISO_TIME_________ NATURE LAT LON
degrees north degrees east
WP 1930-02-14 22:00:00 NR 20.90 120.10
WP 1930-02-15 00:00:00 NR 21.35 121.08
WP 03:00:00 NR 22.02 122.55
WP 06:00:00 NR 22.67 124.03
WP 09:00:00 NR 23.30 125.51
WP 10:00:00 NR 23.50 126.00
WP 12:00:00 NR 23.90 126.98
WP 15:00:00 NR 24.48 128.44
WP 18:00:00 NR 25.03 129.85
WP 21:00:00 NR 25.54 131.18
WP 22:00:00 NR 25.70 131.60
WP 1930-02-16 00:00:00 NR 26.01 132.40
WP 03:00:00 NR 26.45 133.53
WP 06:00:00 NR 26.86 134.60
WP 09:00:00 NR 27.27 135.65
WP 10:00:00 NR 27.40 136.00
WP 12:00:00 NR 27.67 136.72
WP 15:00:00 NR 28.07 137.83
WP 18:00:00 NR 28.47 138.96
WP 21:00:00 NR 28.87 140.11
WP 22:00:00 NR 29.00 140.50

Source Information

Agency Information
USA
TOKYO
CMA
HKO
NEWDELHI
REUNION
BOM
NADI
WELLINGTON
DS824
TD9636 cons_worldwide_trop_cyclone_18710101-19891231-003:Line=8477
TD9635
NEUMANN
MLC

All available IBTrACS Data

SEASON BASIN SUBBASIN ISO_TIME_________ NATURE LAT LON DIST2LAND LANDFALL IFLAG USA SSHS TD9636 LAT TD9636 LON TD9636 STAGE STORM SPEED STORM DIR
Year degrees north degrees east km km 1 degrees north degrees east kts degrees
1930 WP MM 1930-02-14 22:00:00 NR 20.90 120.10 127 59 __________O___ -1 20.90 120.10 2 31 64
1930 WP MM 1930-02-15 00:00:00 NR 21.35 121.08 59 60 __________P___ -1 21.35 121.08 2 31 64
1930 WP MM 03:00:00 NR 22.02 122.55 164 166 __________P___ -1 22.02 122.55 2 30 64
1930 WP MM 06:00:00 NR 22.67 124.03 269 280 __________P___ -1 22.67 124.03 2 30 65
1930 WP MM 09:00:00 NR 23.30 125.51 389 399 __________P___ -1 23.30 125.51 2 30 65
1930 WP MM 10:00:00 NR 23.50 126.00 430 430 __________O___ -1 23.50 126.00 2 30 66
1930 WP MM 12:00:00 NR 23.90 126.98 520 527 __________P___ -1 23.90 126.98 2 29 66
1930 WP MM 15:00:00 NR 24.48 128.44 648 658 __________P___ -1 24.48 128.44 2 28 67
1930 WP MM 18:00:00 NR 25.03 129.85 675 614 __________P___ -1 25.03 129.85 2 27 67
1930 WP MM 21:00:00 NR 25.54 131.18 615 596 __________P___ -1 25.54 131.18 2 26 67
1930 WP MM 22:00:00 NR 25.70 131.60 598 579 __________O___ -1 25.70 131.60 4 24 67
1930 WP MM 1930-02-16 00:00:00 NR 26.01 132.40 582 570 __________P___ -1 26.01 132.40 4 23 67
1930 WP MM 03:00:00 NR 26.45 133.53 581 576 __________P___ -1 26.45 133.53 4 21 67
1930 WP MM 06:00:00 NR 26.86 134.60 590 591 __________P___ -1 26.86 134.60 4 21 67
1930 WP MM 09:00:00 NR 27.27 135.65 611 618 __________P___ -1 27.27 135.65 4 20 67
1930 WP MM 10:00:00 NR 27.40 136.00 630 630 __________O___ -1 27.40 136.00 4 21 67
1930 WP MM 12:00:00 NR 27.67 136.72 641 621 __________P___ -1 27.67 136.72 4 21 67
1930 WP MM 15:00:00 NR 28.07 137.83 621 616 __________P___ -1 28.07 137.83 4 21 68
1930 WP MM 18:00:00 NR 28.47 138.96 625 625 __________P___ -1 28.47 138.96 4 22 68
1930 WP MM 21:00:00 NR 28.87 140.11 647 642 __________P___ -1 28.87 140.11 4 22 69
1930 WP MM 22:00:00 NR 29.00 140.50 644 __________O___ -1 29.00 140.50 4 22 69